sensor_id;sensor_type;location;lat;lon;timestamp;P1;durP1;ratioP1;P2;durP2;ratioP2
18200;SDS011;9226;47.858;9.594;2022-11-20T00:01:17;5.80;;;3.40;;
18200;SDS011;9226;47.858;9.594;2022-11-20T00:03:44;6.93;;;3.73;;
18200;SDS011;9226;47.858;9.594;2022-11-20T00:06:10;7.47;;;3.70;;
18200;SDS011;9226;47.858;9.594;2022-11-20T00:08:38;5.13;;;3.20;;
18200;SDS011;9226;47.858;9.594;2022-11-20T00:11:07;6.70;;;3.97;;
18200;SDS011;9226;47.858;9.594;2022-11-20T00:13:35;6.17;;;3.43;;
18200;SDS011;9226;47.858;9.594;2022-11-20T00:16:02;6.73;;;3.43;;
18200;SDS011;9226;47.858;9.594;2022-11-20T00:18:29;7.10;;;3.50;;
18200;SDS011;9226;47.858;9.594;2022-11-20T00:21:04;6.07;;;3.47;;
18200;SDS011;9226;47.858;9.594;2022-11-20T00:23:32;10.60;;;3.40;;
18200;SDS011;9226;47.858;9.594;2022-11-20T00:26:07;8.33;;;3.50;;
18200;SDS011;9226;47.858;9.594;2022-11-20T00:28:34;7.03;;;3.43;;
18200;SDS011;9226;47.858;9.594;2022-11-20T00:33:30;6.23;;;3.53;;
18200;SDS011;9226;47.858;9.594;2022-11-20T00:35:59;7.20;;;3.13;;
18200;SDS011;9226;47.858;9.594;2022-11-20T00:38:26;8.43;;;3.57;;
18200;SDS011;9226;47.858;9.594;2022-11-20T00:40:58;5.80;;;3.10;;
18200;SDS011;9226;47.858;9.594;2022-11-20T00:43:25;6.97;;;3.63;;
18200;SDS011;9226;47.858;9.594;2022-11-20T00:48:21;6.33;;;3.40;;
18200;SDS011;9226;47.858;9.594;2022-11-20T00:50:47;5.37;;;3.10;;
18200;SDS011;9226;47.858;9.594;2022-11-20T00:53:12;7.63;;;3.50;;
18200;SDS011;9226;47.858;9.594;2022-11-20T00:55:37;7.63;;;3.40;;
18200;SDS011;9226;47.858;9.594;2022-11-20T00:58:03;6.70;;;3.57;;
18200;SDS011;9226;47.858;9.594;2022-11-20T01:00:28;5.37;;;3.47;;
18200;SDS011;9226;47.858;9.594;2022-11-20T01:02:55;7.37;;;4.00;;
18200;SDS011;9226;47.858;9.594;2022-11-20T01:05:20;7.60;;;3.50;;
18200;SDS011;9226;47.858;9.594;2022-11-20T01:07:46;7.40;;;3.90;;
18200;SDS011;9226;47.858;9.594;2022-11-20T01:10:11;6.00;;;3.33;;
18200;SDS011;9226;47.858;9.594;2022-11-20T01:12:36;8.50;;;3.90;;
18200;SDS011;9226;47.858;9.594;2022-11-20T01:15:02;8.80;;;3.30;;
18200;SDS011;9226;47.858;9.594;2022-11-20T01:17:28;6.67;;;3.70;;
18200;SDS011;9226;47.858;9.594;2022-11-20T01:19:53;8.73;;;3.63;;
18200;SDS011;9226;47.858;9.594;2022-11-20T01:22:18;5.50;;;3.37;;
18200;SDS011;9226;47.858;9.594;2022-11-20T01:24:44;5.93;;;3.37;;
18200;SDS011;9226;47.858;9.594;2022-11-20T01:27:09;6.90;;;3.40;;
18200;SDS011;9226;47.858;9.594;2022-11-20T01:29:35;9.03;;;3.97;;
18200;SDS011;9226;47.858;9.594;2022-11-20T01:32:00;8.03;;;3.70;;
18200;SDS011;9226;47.858;9.594;2022-11-20T01:34:26;6.60;;;4.10;;
18200;SDS011;9226;47.858;9.594;2022-11-20T01:36:51;5.90;;;3.60;;
18200;SDS011;9226;47.858;9.594;2022-11-20T01:39:19;6.57;;;3.43;;
18200;SDS011;9226;47.858;9.594;2022-11-20T01:41:49;6.87;;;3.67;;
18200;SDS011;9226;47.858;9.594;2022-11-20T01:44:48;8.93;;;3.63;;
18200;SDS011;9226;47.858;9.594;2022-11-20T01:47:16;6.37;;;4.03;;
18200;SDS011;9226;47.858;9.594;2022-11-20T01:49:48;8.33;;;3.53;;
18200;SDS011;9226;47.858;9.594;2022-11-20T01:52:22;6.70;;;3.57;;
18200;SDS011;9226;47.858;9.594;2022-11-20T01:57:23;8.27;;;3.73;;
18200;SDS011;9226;47.858;9.594;2022-11-20T02:00:00;9.20;;;4.03;;
18200;SDS011;9226;47.858;9.594;2022-11-20T02:02:30;8.27;;;4.10;;
18200;SDS011;9226;47.858;9.594;2022-11-20T02:04:56;8.83;;;3.83;;
18200;SDS011;9226;47.858;9.594;2022-11-20T02:07:29;6.90;;;4.00;;
18200;SDS011;9226;47.858;9.594;2022-11-20T02:09:55;6.47;;;3.43;;
18200;SDS011;9226;47.858;9.594;2022-11-20T02:12:20;7.90;;;4.00;;
18200;SDS011;9226;47.858;9.594;2022-11-20T02:15:04;8.90;;;4.33;;
18200;SDS011;9226;47.858;9.594;2022-11-20T02:17:30;8.23;;;4.47;;
18200;SDS011;9226;47.858;9.594;2022-11-20T02:19:55;8.27;;;4.10;;
18200;SDS011;9226;47.858;9.594;2022-11-20T02:22:23;8.40;;;4.23;;
18200;SDS011;9226;47.858;9.594;2022-11-20T02:24:55;7.93;;;4.10;;
18200;SDS011;9226;47.858;9.594;2022-11-20T02:27:24;8.53;;;4.30;;
18200;SDS011;9226;47.858;9.594;2022-11-20T02:32:20;8.73;;;4.50;;
18200;SDS011;9226;47.858;9.594;2022-11-20T02:34:55;6.37;;;3.83;;
18200;SDS011;9226;47.858;9.594;2022-11-20T02:37:21;7.67;;;3.60;;
18200;SDS011;9226;47.858;9.594;2022-11-20T02:39:49;9.97;;;4.50;;
18200;SDS011;9226;47.858;9.594;2022-11-20T02:42:17;8.00;;;4.10;;
18200;SDS011;9226;47.858;9.594;2022-11-20T02:44:42;7.77;;;4.40;;
18200;SDS011;9226;47.858;9.594;2022-11-20T02:47:08;7.77;;;4.30;;
18200;SDS011;9226;47.858;9.594;2022-11-20T02:49:34;8.97;;;4.10;;
18200;SDS011;9226;47.858;9.594;2022-11-20T02:51:59;7.20;;;3.97;;
18200;SDS011;9226;47.858;9.594;2022-11-20T02:54:25;9.43;;;4.57;;
18200;SDS011;9226;47.858;9.594;2022-11-20T02:56:50;8.63;;;4.20;;
18200;SDS011;9226;47.858;9.594;2022-11-20T02:59:16;8.27;;;4.40;;
18200;SDS011;9226;47.858;9.594;2022-11-20T03:01:41;10.07;;;5.03;;
18200;SDS011;9226;47.858;9.594;2022-11-20T03:04:07;8.77;;;4.30;;
18200;SDS011;9226;47.858;9.594;2022-11-20T03:06:33;7.33;;;4.07;;
18200;SDS011;9226;47.858;9.594;2022-11-20T03:08:58;10.27;;;4.40;;
18200;SDS011;9226;47.858;9.594;2022-11-20T03:11:24;10.87;;;4.57;;
18200;SDS011;9226;47.858;9.594;2022-11-20T03:13:49;11.90;;;5.10;;
18200;SDS011;9226;47.858;9.594;2022-11-20T03:16:16;8.30;;;4.00;;
18200;SDS011;9226;47.858;9.594;2022-11-20T03:18:43;7.03;;;3.77;;
18200;SDS011;9226;47.858;9.594;2022-11-20T03:21:09;7.80;;;4.17;;
18200;SDS011;9226;47.858;9.594;2022-11-20T03:23:36;7.80;;;4.30;;
18200;SDS011;9226;47.858;9.594;2022-11-20T03:28:41;8.07;;;4.10;;
18200;SDS011;9226;47.858;9.594;2022-11-20T03:31:11;10.77;;;4.00;;
18200;SDS011;9226;47.858;9.594;2022-11-20T03:33:39;6.93;;;3.53;;
18200;SDS011;9226;47.858;9.594;2022-11-20T03:36:06;11.53;;;4.43;;
18200;SDS011;9226;47.858;9.594;2022-11-20T03:38:33;7.87;;;3.93;;
18200;SDS011;9226;47.858;9.594;2022-11-20T03:41:03;11.37;;;4.00;;
18200;SDS011;9226;47.858;9.594;2022-11-20T03:43:30;7.90;;;4.33;;
18200;SDS011;9226;47.858;9.594;2022-11-20T03:45:58;9.37;;;4.60;;
18200;SDS011;9226;47.858;9.594;2022-11-20T03:48:24;7.33;;;4.27;;
18200;SDS011;9226;47.858;9.594;2022-11-20T03:50:49;5.97;;;3.47;;
18200;SDS011;9226;47.858;9.594;2022-11-20T03:53:16;7.90;;;4.03;;
18200;SDS011;9226;47.858;9.594;2022-11-20T03:55:41;5.87;;;3.63;;
18200;SDS011;9226;47.858;9.594;2022-11-20T03:58:07;8.97;;;4.33;;
18200;SDS011;9226;47.858;9.594;2022-11-20T04:00:33;8.13;;;4.13;;
18200;SDS011;9226;47.858;9.594;2022-11-20T04:02:58;9.93;;;4.23;;
18200;SDS011;9226;47.858;9.594;2022-11-20T04:05:25;11.87;;;4.10;;
18200;SDS011;9226;47.858;9.594;2022-11-20T04:07:51;7.97;;;4.00;;
18200;SDS011;9226;47.858;9.594;2022-11-20T04:10:16;8.97;;;4.13;;
18200;SDS011;9226;47.858;9.594;2022-11-20T04:12:42;9.77;;;4.13;;
18200;SDS011;9226;47.858;9.594;2022-11-20T04:15:07;10.70;;;3.83;;
18200;SDS011;9226;47.858;9.594;2022-11-20T04:17:33;7.67;;;3.50;;
18200;SDS011;9226;47.858;9.594;2022-11-20T04:19:59;7.60;;;3.57;;
18200;SDS011;9226;47.858;9.594;2022-11-20T04:22:24;7.57;;;3.57;;
18200;SDS011;9226;47.858;9.594;2022-11-20T04:24:49;7.63;;;3.90;;
18200;SDS011;9226;47.858;9.594;2022-11-20T04:27:15;6.63;;;3.53;;
18200;SDS011;9226;47.858;9.594;2022-11-20T04:29:40;7.63;;;3.63;;
18200;SDS011;9226;47.858;9.594;2022-11-20T04:32:06;5.23;;;3.10;;
18200;SDS011;9226;47.858;9.594;2022-11-20T04:34:31;7.27;;;3.43;;
18200;SDS011;9226;47.858;9.594;2022-11-20T04:36:56;9.83;;;4.30;;
18200;SDS011;9226;47.858;9.594;2022-11-20T04:39:22;6.87;;;3.70;;
18200;SDS011;9226;47.858;9.594;2022-11-20T04:41:47;8.60;;;3.67;;
18200;SDS011;9226;47.858;9.594;2022-11-20T04:44:13;7.63;;;4.03;;
18200;SDS011;9226;47.858;9.594;2022-11-20T04:46:40;9.27;;;3.63;;
18200;SDS011;9226;47.858;9.594;2022-11-20T04:49:06;8.20;;;3.70;;
18200;SDS011;9226;47.858;9.594;2022-11-20T04:51:33;9.37;;;3.43;;
18200;SDS011;9226;47.858;9.594;2022-11-20T04:53:59;9.13;;;3.47;;
18200;SDS011;9226;47.858;9.594;2022-11-20T04:56:25;8.37;;;3.37;;
18200;SDS011;9226;47.858;9.594;2022-11-20T04:58:50;8.03;;;4.10;;
18200;SDS011;9226;47.858;9.594;2022-11-20T05:01:20;9.00;;;3.87;;
18200;SDS011;9226;47.858;9.594;2022-11-20T05:03:47;12.73;;;3.97;;
18200;SDS011;9226;47.858;9.594;2022-11-20T05:06:14;7.33;;;3.83;;
18200;SDS011;9226;47.858;9.594;2022-11-20T05:08:41;9.27;;;4.33;;
18200;SDS011;9226;47.858;9.594;2022-11-20T05:11:08;7.33;;;4.00;;
18200;SDS011;9226;47.858;9.594;2022-11-20T05:13:35;7.93;;;3.50;;
18200;SDS011;9226;47.858;9.594;2022-11-20T05:16:07;9.90;;;4.60;;
18200;SDS011;9226;47.858;9.594;2022-11-20T05:18:35;7.40;;;3.67;;
18200;SDS011;9226;47.858;9.594;2022-11-20T05:21:01;8.33;;;3.90;;
18200;SDS011;9226;47.858;9.594;2022-11-20T05:23:27;8.40;;;4.10;;
18200;SDS011;9226;47.858;9.594;2022-11-20T05:25:55;8.10;;;4.40;;
18200;SDS011;9226;47.858;9.594;2022-11-20T05:28:22;10.80;;;4.43;;
18200;SDS011;9226;47.858;9.594;2022-11-20T05:30:48;9.33;;;4.60;;
18200;SDS011;9226;47.858;9.594;2022-11-20T05:33:13;9.53;;;4.27;;
18200;SDS011;9226;47.858;9.594;2022-11-20T05:35:39;9.70;;;4.07;;
18200;SDS011;9226;47.858;9.594;2022-11-20T05:38:05;8.90;;;4.10;;
18200;SDS011;9226;47.858;9.594;2022-11-20T05:40:30;9.23;;;4.30;;
18200;SDS011;9226;47.858;9.594;2022-11-20T05:42:55;10.33;;;4.37;;
18200;SDS011;9226;47.858;9.594;2022-11-20T05:45:21;8.57;;;4.07;;
18200;SDS011;9226;47.858;9.594;2022-11-20T05:47:46;8.73;;;3.90;;
18200;SDS011;9226;47.858;9.594;2022-11-20T05:50:12;7.87;;;3.70;;
18200;SDS011;9226;47.858;9.594;2022-11-20T05:52:38;7.67;;;3.80;;
18200;SDS011;9226;47.858;9.594;2022-11-20T05:55:04;9.33;;;3.63;;
18200;SDS011;9226;47.858;9.594;2022-11-20T05:57:30;7.80;;;3.60;;
18200;SDS011;9226;47.858;9.594;2022-11-20T05:59:56;7.97;;;3.87;;
18200;SDS011;9226;47.858;9.594;2022-11-20T06:02:21;8.63;;;3.93;;
18200;SDS011;9226;47.858;9.594;2022-11-20T06:04:47;9.57;;;4.17;;
18200;SDS011;9226;47.858;9.594;2022-11-20T06:07:12;8.07;;;4.03;;
18200;SDS011;9226;47.858;9.594;2022-11-20T06:09:38;7.63;;;3.87;;
18200;SDS011;9226;47.858;9.594;2022-11-20T06:12:03;8.60;;;3.70;;
18200;SDS011;9226;47.858;9.594;2022-11-20T06:14:29;6.73;;;3.67;;
18200;SDS011;9226;47.858;9.594;2022-11-20T06:16:54;5.70;;;3.10;;
18200;SDS011;9226;47.858;9.594;2022-11-20T06:19:20;6.97;;;3.67;;
18200;SDS011;9226;47.858;9.594;2022-11-20T06:21:47;6.57;;;3.50;;
18200;SDS011;9226;47.858;9.594;2022-11-20T06:24:13;8.93;;;3.40;;
18200;SDS011;9226;47.858;9.594;2022-11-20T06:26:38;5.90;;;3.43;;
18200;SDS011;9226;47.858;9.594;2022-11-20T06:29:04;7.27;;;3.33;;
18200;SDS011;9226;47.858;9.594;2022-11-20T06:31:29;7.57;;;3.63;;
18200;SDS011;9226;47.858;9.594;2022-11-20T06:33:57;12.97;;;3.40;;
18200;SDS011;9226;47.858;9.594;2022-11-20T06:36:23;6.43;;;3.17;;
18200;SDS011;9226;47.858;9.594;2022-11-20T06:38:48;5.33;;;3.07;;
18200;SDS011;9226;47.858;9.594;2022-11-20T06:41:15;6.63;;;3.33;;
18200;SDS011;9226;47.858;9.594;2022-11-20T06:43:43;6.00;;;3.20;;
18200;SDS011;9226;47.858;9.594;2022-11-20T06:46:09;6.60;;;3.03;;
18200;SDS011;9226;47.858;9.594;2022-11-20T06:48:36;5.97;;;3.13;;
18200;SDS011;9226;47.858;9.594;2022-11-20T06:51:05;5.90;;;3.10;;
18200;SDS011;9226;47.858;9.594;2022-11-20T06:53:32;6.17;;;3.37;;
18200;SDS011;9226;47.858;9.594;2022-11-20T06:55:58;6.37;;;2.77;;
18200;SDS011;9226;47.858;9.594;2022-11-20T06:58:25;6.00;;;3.20;;
18200;SDS011;9226;47.858;9.594;2022-11-20T07:00:52;7.43;;;3.40;;
18200;SDS011;9226;47.858;9.594;2022-11-20T07:03:18;5.63;;;3.50;;
18200;SDS011;9226;47.858;9.594;2022-11-20T07:05:44;5.77;;;3.00;;
18200;SDS011;9226;47.858;9.594;2022-11-20T07:08:10;6.83;;;3.27;;
18200;SDS011;9226;47.858;9.594;2022-11-20T07:10:36;8.73;;;3.40;;
18200;SDS011;9226;47.858;9.594;2022-11-20T07:13:02;6.60;;;3.47;;
18200;SDS011;9226;47.858;9.594;2022-11-20T07:15:27;5.23;;;2.90;;
18200;SDS011;9226;47.858;9.594;2022-11-20T07:17:53;7.40;;;3.40;;
18200;SDS011;9226;47.858;9.594;2022-11-20T07:20:18;8.83;;;3.83;;
18200;SDS011;9226;47.858;9.594;2022-11-20T07:22:44;7.33;;;3.50;;
18200;SDS011;9226;47.858;9.594;2022-11-20T07:25:09;14.77;;;4.47;;
18200;SDS011;9226;47.858;9.594;2022-11-20T07:27:35;11.47;;;4.90;;
18200;SDS011;9226;47.858;9.594;2022-11-20T07:30:02;14.77;;;5.53;;
18200;SDS011;9226;47.858;9.594;2022-11-20T07:32:28;7.20;;;3.87;;
18200;SDS011;9226;47.858;9.594;2022-11-20T07:34:53;16.07;;;7.50;;
18200;SDS011;9226;47.858;9.594;2022-11-20T07:37:19;10.40;;;5.27;;
18200;SDS011;9226;47.858;9.594;2022-11-20T07:39:44;11.60;;;5.50;;
18200;SDS011;9226;47.858;9.594;2022-11-20T07:42:10;14.67;;;4.50;;
18200;SDS011;9226;47.858;9.594;2022-11-20T07:44:37;12.97;;;5.33;;
18200;SDS011;9226;47.858;9.594;2022-11-20T07:47:03;12.00;;;4.70;;
18200;SDS011;9226;47.858;9.594;2022-11-20T07:49:28;8.00;;;3.80;;
18200;SDS011;9226;47.858;9.594;2022-11-20T07:51:54;8.23;;;3.93;;
18200;SDS011;9226;47.858;9.594;2022-11-20T07:54:19;8.87;;;3.30;;
18200;SDS011;9226;47.858;9.594;2022-11-20T07:56:45;8.80;;;4.30;;
18200;SDS011;9226;47.858;9.594;2022-11-20T07:59:11;16.17;;;5.10;;
18200;SDS011;9226;47.858;9.594;2022-11-20T08:01:37;13.27;;;4.97;;
18200;SDS011;9226;47.858;9.594;2022-11-20T08:04:03;13.63;;;5.00;;
18200;SDS011;9226;47.858;9.594;2022-11-20T08:06:28;11.07;;;4.00;;
18200;SDS011;9226;47.858;9.594;2022-11-20T08:08:54;13.53;;;5.07;;
18200;SDS011;9226;47.858;9.594;2022-11-20T08:11:19;7.90;;;4.20;;
18200;SDS011;9226;47.858;9.594;2022-11-20T08:14:03;8.07;;;4.00;;
18200;SDS011;9226;47.858;9.594;2022-11-20T08:16:44;6.20;;;3.83;;
18200;SDS011;9226;47.858;9.594;2022-11-20T08:19:15;10.57;;;4.23;;
18200;SDS011;9226;47.858;9.594;2022-11-20T08:21:42;5.97;;;2.57;;
18200;SDS011;9226;47.858;9.594;2022-11-20T08:24:08;4.47;;;2.50;;
18200;SDS011;9226;47.858;9.594;2022-11-20T08:26:34;5.33;;;3.00;;
18200;SDS011;9226;47.858;9.594;2022-11-20T08:29:00;4.33;;;2.40;;
18200;SDS011;9226;47.858;9.594;2022-11-20T08:31:26;5.90;;;2.37;;
18200;SDS011;9226;47.858;9.594;2022-11-20T08:33:52;6.87;;;2.60;;
18200;SDS011;9226;47.858;9.594;2022-11-20T08:36:18;8.73;;;3.40;;
18200;SDS011;9226;47.858;9.594;2022-11-20T08:38:51;11.10;;;2.87;;
18200;SDS011;9226;47.858;9.594;2022-11-20T08:41:21;4.40;;;2.30;;
18200;SDS011;9226;47.858;9.594;2022-11-20T08:43:56;9.10;;;3.00;;
18200;SDS011;9226;47.858;9.594;2022-11-20T08:46:24;6.40;;;2.63;;
18200;SDS011;9226;47.858;9.594;2022-11-20T08:48:51;8.20;;;3.37;;
18200;SDS011;9226;47.858;9.594;2022-11-20T08:51:18;6.33;;;2.93;;
18200;SDS011;9226;47.858;9.594;2022-11-20T08:53:44;5.37;;;2.20;;
18200;SDS011;9226;47.858;9.594;2022-11-20T08:56:09;7.07;;;2.90;;
18200;SDS011;9226;47.858;9.594;2022-11-20T08:58:36;5.83;;;2.57;;
18200;SDS011;9226;47.858;9.594;2022-11-20T09:01:02;4.93;;;2.70;;
18200;SDS011;9226;47.858;9.594;2022-11-20T09:03:28;5.03;;;2.33;;
18200;SDS011;9226;47.858;9.594;2022-11-20T09:05:57;8.47;;;2.80;;
18200;SDS011;9226;47.858;9.594;2022-11-20T09:08:26;6.30;;;2.73;;
18200;SDS011;9226;47.858;9.594;2022-11-20T09:10:53;7.70;;;3.37;;
18200;SDS011;9226;47.858;9.594;2022-11-20T09:13:20;6.40;;;3.07;;
18200;SDS011;9226;47.858;9.594;2022-11-20T09:15:46;5.17;;;2.23;;
18200;SDS011;9226;47.858;9.594;2022-11-20T09:18:12;5.33;;;2.37;;
18200;SDS011;9226;47.858;9.594;2022-11-20T09:20:37;3.83;;;2.23;;
18200;SDS011;9226;47.858;9.594;2022-11-20T09:23:03;7.30;;;3.30;;
18200;SDS011;9226;47.858;9.594;2022-11-20T09:25:28;10.63;;;3.30;;
18200;SDS011;9226;47.858;9.594;2022-11-20T09:27:55;4.87;;;1.80;;
18200;SDS011;9226;47.858;9.594;2022-11-20T09:30:24;4.03;;;2.10;;
18200;SDS011;9226;47.858;9.594;2022-11-20T09:32:50;3.30;;;1.87;;
18200;SDS011;9226;47.858;9.594;2022-11-20T09:35:15;7.73;;;3.10;;
18200;SDS011;9226;47.858;9.594;2022-11-20T09:37:41;3.60;;;2.13;;
18200;SDS011;9226;47.858;9.594;2022-11-20T09:40:06;4.77;;;1.83;;
18200;SDS011;9226;47.858;9.594;2022-11-20T09:54:15;4.03;;;2.20;;
18200;SDS011;9226;47.858;9.594;2022-11-20T09:56:42;2.70;;;1.70;;
18200;SDS011;9226;47.858;9.594;2022-11-20T09:59:26;4.53;;;2.00;;
18200;SDS011;9226;47.858;9.594;2022-11-20T10:02:12;4.43;;;1.90;;
18200;SDS011;9226;47.858;9.594;2022-11-20T10:04:51;3.27;;;2.00;;
18200;SDS011;9226;47.858;9.594;2022-11-20T10:07:33;6.50;;;2.30;;
18200;SDS011;9226;47.858;9.594;2022-11-20T10:10:13;5.50;;;2.67;;
18200;SDS011;9226;47.858;9.594;2022-11-20T10:15:42;3.83;;;2.00;;
18200;SDS011;9226;47.858;9.594;2022-11-20T10:18:39;2.90;;;1.60;;
18200;SDS011;9226;47.858;9.594;2022-11-20T10:30:16;5.60;;;1.57;;
18200;SDS011;9226;47.858;9.594;2022-11-20T10:32:54;2.87;;;1.80;;
18200;SDS011;9226;47.858;9.594;2022-11-20T10:38:07;3.10;;;1.40;;
18200;SDS011;9226;47.858;9.594;2022-11-20T10:40:41;3.13;;;2.00;;
18200;SDS011;9226;47.858;9.594;2022-11-20T10:43:24;4.97;;;1.77;;
18200;SDS011;9226;47.858;9.594;2022-11-20T10:45:58;2.50;;;1.70;;
18200;SDS011;9226;47.858;9.594;2022-11-20T10:48:27;2.00;;;1.50;;
18200;SDS011;9226;47.858;9.594;2022-11-20T10:56:38;2.33;;;1.53;;
18200;SDS011;9226;47.858;9.594;2022-11-20T11:02:19;2.53;;;1.30;;
18200;SDS011;9226;47.858;9.594;2022-11-20T11:04:47;2.40;;;1.30;;
18200;SDS011;9226;47.858;9.594;2022-11-20T11:07:23;7.03;;;1.60;;
18200;SDS011;9226;47.858;9.594;2022-11-20T11:09:53;2.57;;;1.40;;
18200;SDS011;9226;47.858;9.594;2022-11-20T11:12:21;1.93;;;1.23;;
18200;SDS011;9226;47.858;9.594;2022-11-20T11:14:49;4.30;;;1.60;;
18200;SDS011;9226;47.858;9.594;2022-11-20T11:17:29;3.80;;;1.70;;
18200;SDS011;9226;47.858;9.594;2022-11-20T11:20:07;2.43;;;1.30;;
18200;SDS011;9226;47.858;9.594;2022-11-20T11:25:24;5.00;;;1.60;;
18200;SDS011;9226;47.858;9.594;2022-11-20T11:27:52;5.70;;;1.60;;
18200;SDS011;9226;47.858;9.594;2022-11-20T11:30:20;2.33;;;1.60;;
18200;SDS011;9226;47.858;9.594;2022-11-20T11:32:46;2.17;;;1.50;;
18200;SDS011;9226;47.858;9.594;2022-11-20T11:35:27;4.50;;;1.70;;
18200;SDS011;9226;47.858;9.594;2022-11-20T11:38:54;2.67;;;1.50;;
18200;SDS011;9226;47.858;9.594;2022-11-20T11:41:00;5.87;;;1.70;;
18200;SDS011;9226;47.858;9.594;2022-11-20T11:43:32;2.80;;;1.40;;
18200;SDS011;9226;47.858;9.594;2022-11-20T11:48:56;7.07;;;2.07;;
18200;SDS011;9226;47.858;9.594;2022-11-20T11:51:24;3.60;;;2.37;;
18200;SDS011;9226;47.858;9.594;2022-11-20T11:54:19;3.33;;;1.40;;
18200;SDS011;9226;47.858;9.594;2022-11-20T11:56:48;2.03;;;1.40;;
18200;SDS011;9226;47.858;9.594;2022-11-20T11:59:18;3.70;;;1.47;;
18200;SDS011;9226;47.858;9.594;2022-11-20T12:01:57;4.20;;;1.40;;
18200;SDS011;9226;47.858;9.594;2022-11-20T12:07:20;1.70;;;1.20;;
18200;SDS011;9226;47.858;9.594;2022-11-20T12:10:04;2.37;;;1.50;;
18200;SDS011;9226;47.858;9.594;2022-11-20T12:12:36;3.07;;;1.70;;
18200;SDS011;9226;47.858;9.594;2022-11-20T12:15:09;2.70;;;1.50;;
18200;SDS011;9226;47.858;9.594;2022-11-20T12:17:37;3.67;;;1.70;;
18200;SDS011;9226;47.858;9.594;2022-11-20T12:20:05;2.67;;;1.40;;
18200;SDS011;9226;47.858;9.594;2022-11-20T12:25:19;3.00;;;1.50;;
18200;SDS011;9226;47.858;9.594;2022-11-20T12:30:33;2.80;;;1.60;;
18200;SDS011;9226;47.858;9.594;2022-11-20T12:39:02;2.87;;;1.40;;
18200;SDS011;9226;47.858;9.594;2022-11-20T12:50:57;1.90;;;1.03;;
18200;SDS011;9226;47.858;9.594;2022-11-20T12:58:32;1.90;;;1.30;;
18200;SDS011;9226;47.858;9.594;2022-11-20T13:01:12;2.83;;;1.70;;
18200;SDS011;9226;47.858;9.594;2022-11-20T13:04:12;14.90;;;5.40;;
18200;SDS011;9226;47.858;9.594;2022-11-20T13:06:45;15.83;;;6.10;;
18200;SDS011;9226;47.858;9.594;2022-11-20T13:09:14;3.43;;;1.70;;
18200;SDS011;9226;47.858;9.594;2022-11-20T13:17:14;1.70;;;1.23;;
18200;SDS011;9226;47.858;9.594;2022-11-20T13:19:50;2.57;;;1.30;;
18200;SDS011;9226;47.858;9.594;2022-11-20T13:22:29;2.40;;;1.53;;
18200;SDS011;9226;47.858;9.594;2022-11-20T13:25:08;2.17;;;1.40;;
18200;SDS011;9226;47.858;9.594;2022-11-20T13:27:35;3.80;;;1.50;;
18200;SDS011;9226;47.858;9.594;2022-11-20T13:30:02;3.33;;;1.50;;
18200;SDS011;9226;47.858;9.594;2022-11-20T13:35:40;3.47;;;1.33;;
18200;SDS011;9226;47.858;9.594;2022-11-20T13:38:11;2.43;;;1.40;;
18200;SDS011;9226;47.858;9.594;2022-11-20T13:40:38;2.77;;;1.20;;
18200;SDS011;9226;47.858;9.594;2022-11-20T13:43:44;1.67;;;1.23;;
18200;SDS011;9226;47.858;9.594;2022-11-20T13:46:13;2.07;;;1.57;;
18200;SDS011;9226;47.858;9.594;2022-11-20T13:51:11;1.97;;;1.20;;
18200;SDS011;9226;47.858;9.594;2022-11-20T13:56:31;3.77;;;1.20;;
18200;SDS011;9226;47.858;9.594;2022-11-20T14:01:35;2.47;;;1.33;;
18200;SDS011;9226;47.858;9.594;2022-11-20T14:04:08;5.67;;;1.27;;
18200;SDS011;9226;47.858;9.594;2022-11-20T14:06:39;2.13;;;1.10;;
18200;SDS011;9226;47.858;9.594;2022-11-20T14:09:24;1.97;;;1.20;;
18200;SDS011;9226;47.858;9.594;2022-11-20T14:11:51;4.13;;;1.20;;
18200;SDS011;9226;47.858;9.594;2022-11-20T14:14:19;1.60;;;1.10;;
18200;SDS011;9226;47.858;9.594;2022-11-20T14:16:47;2.57;;;1.30;;
18200;SDS011;9226;47.858;9.594;2022-11-20T14:21:44;1.63;;;1.10;;
18200;SDS011;9226;47.858;9.594;2022-11-20T14:24:11;1.43;;;1.10;;
18200;SDS011;9226;47.858;9.594;2022-11-20T14:26:38;3.50;;;1.07;;
18200;SDS011;9226;47.858;9.594;2022-11-20T14:29:21;3.30;;;1.03;;
18200;SDS011;9226;47.858;9.594;2022-11-20T14:31:51;2.60;;;1.37;;
18200;SDS011;9226;47.858;9.594;2022-11-20T14:34:20;4.47;;;1.20;;
18200;SDS011;9226;47.858;9.594;2022-11-20T14:36:49;1.83;;;1.10;;
18200;SDS011;9226;47.858;9.594;2022-11-20T14:39:21;2.73;;;0.90;;
18200;SDS011;9226;47.858;9.594;2022-11-20T14:41:50;2.47;;;1.03;;
18200;SDS011;9226;47.858;9.594;2022-11-20T14:44:17;3.23;;;1.20;;
18200;SDS011;9226;47.858;9.594;2022-11-20T14:46:45;2.03;;;0.97;;
18200;SDS011;9226;47.858;9.594;2022-11-20T14:49:10;1.10;;;1.00;;
18200;SDS011;9226;47.858;9.594;2022-11-20T14:51:38;1.30;;;1.00;;
18200;SDS011;9226;47.858;9.594;2022-11-20T14:54:15;2.33;;;1.30;;
18200;SDS011;9226;47.858;9.594;2022-11-20T14:56:41;1.43;;;1.00;;
18200;SDS011;9226;47.858;9.594;2022-11-20T14:59:07;2.77;;;1.27;;
18200;SDS011;9226;47.858;9.594;2022-11-20T15:01:34;8.87;;;1.50;;
18200;SDS011;9226;47.858;9.594;2022-11-20T15:04:07;4.93;;;1.40;;
18200;SDS011;9226;47.858;9.594;2022-11-20T15:06:35;4.27;;;1.37;;
18200;SDS011;9226;47.858;9.594;2022-11-20T15:09:02;2.03;;;1.30;;
18200;SDS011;9226;47.858;9.594;2022-11-20T15:11:31;2.27;;;1.20;;
18200;SDS011;9226;47.858;9.594;2022-11-20T15:14:01;2.77;;;1.40;;
18200;SDS011;9226;47.858;9.594;2022-11-20T15:16:29;3.53;;;2.00;;
18200;SDS011;9226;47.858;9.594;2022-11-20T15:18:54;4.83;;;2.27;;
18200;SDS011;9226;47.858;9.594;2022-11-20T15:21:20;3.17;;;1.60;;
18200;SDS011;9226;47.858;9.594;2022-11-20T15:23:46;4.27;;;1.50;;
18200;SDS011;9226;47.858;9.594;2022-11-20T15:26:12;2.23;;;1.30;;
18200;SDS011;9226;47.858;9.594;2022-11-20T15:28:41;3.83;;;1.20;;
18200;SDS011;9226;47.858;9.594;2022-11-20T15:31:12;2.63;;;1.30;;
18200;SDS011;9226;47.858;9.594;2022-11-20T15:33:38;3.20;;;1.10;;
18200;SDS011;9226;47.858;9.594;2022-11-20T15:36:04;2.63;;;1.13;;
18200;SDS011;9226;47.858;9.594;2022-11-20T15:38:30;1.87;;;1.10;;
18200;SDS011;9226;47.858;9.594;2022-11-20T15:40:55;4.13;;;1.10;;
18200;SDS011;9226;47.858;9.594;2022-11-20T15:43:21;3.80;;;1.30;;
18200;SDS011;9226;47.858;9.594;2022-11-20T15:45:54;2.87;;;1.30;;
18200;SDS011;9226;47.858;9.594;2022-11-20T15:48:31;2.07;;;1.20;;
18200;SDS011;9226;47.858;9.594;2022-11-20T15:53:34;18.47;;;8.30;;
18200;SDS011;9226;47.858;9.594;2022-11-20T15:56:00;17.03;;;11.10;;
18200;SDS011;9226;47.858;9.594;2022-11-20T15:58:26;10.80;;;5.73;;
18200;SDS011;9226;47.858;9.594;2022-11-20T16:00:52;6.33;;;3.77;;
18200;SDS011;9226;47.858;9.594;2022-11-20T16:03:18;8.30;;;4.17;;
18200;SDS011;9226;47.858;9.594;2022-11-20T16:05:44;9.63;;;4.53;;
18200;SDS011;9226;47.858;9.594;2022-11-20T16:08:10;6.40;;;3.77;;
18200;SDS011;9226;47.858;9.594;2022-11-20T16:10:36;5.83;;;3.60;;
18200;SDS011;9226;47.858;9.594;2022-11-20T16:13:01;8.20;;;4.07;;
18200;SDS011;9226;47.858;9.594;2022-11-20T16:15:49;10.67;;;4.07;;
18200;SDS011;9226;47.858;9.594;2022-11-20T16:18:18;11.47;;;4.80;;
18200;SDS011;9226;47.858;9.594;2022-11-20T16:20:46;10.30;;;4.07;;
18200;SDS011;9226;47.858;9.594;2022-11-20T16:23:13;7.47;;;4.20;;
18200;SDS011;9226;47.858;9.594;2022-11-20T16:25:40;8.80;;;3.90;;
18200;SDS011;9226;47.858;9.594;2022-11-20T16:28:07;11.37;;;5.37;;
18200;SDS011;9226;47.858;9.594;2022-11-20T16:30:32;7.53;;;3.73;;
18200;SDS011;9226;47.858;9.594;2022-11-20T16:32:59;7.87;;;2.87;;
18200;SDS011;9226;47.858;9.594;2022-11-20T16:35:26;10.33;;;4.53;;
18200;SDS011;9226;47.858;9.594;2022-11-20T16:37:53;11.33;;;4.83;;
18200;SDS011;9226;47.858;9.594;2022-11-20T16:40:19;6.70;;;3.53;;
18200;SDS011;9226;47.858;9.594;2022-11-20T16:42:44;22.83;;;10.60;;
18200;SDS011;9226;47.858;9.594;2022-11-20T16:45:09;27.63;;;12.20;;
18200;SDS011;9226;47.858;9.594;2022-11-20T16:47:35;16.53;;;8.07;;
18200;SDS011;9226;47.858;9.594;2022-11-20T16:50:01;21.37;;;8.47;;
18200;SDS011;9226;47.858;9.594;2022-11-20T16:52:27;57.73;;;11.70;;